sensor_id;sensor_type;location;lat;lon;timestamp;pressure;altitude;pressure_sealevel;temperature;humidity
46768;BME280;69007;48.978;18.066;2023-04-06T00:02:07;97746.38;;;0.31;62.17
46768;BME280;69007;48.978;18.066;2023-04-06T00:04:32;97737.25;;;0.18;62.14
46768;BME280;69007;48.978;18.066;2023-04-06T00:06:58;97741.72;;;0.11;63.30
46768;BME280;69007;48.978;18.066;2023-04-06T00:09:23;97742.84;;;0.24;62.74
46768;BME280;69007;48.978;18.066;2023-04-06T00:11:49;97743.84;;;0.23;62.81
46768;BME280;69007;48.978;18.066;2023-04-06T00:14:14;97720.06;;;0.06;63.46
46768;BME280;69007;48.978;18.066;2023-04-06T00:16:42;97720.47;;;0.03;62.79
46768;BME280;69007;48.978;18.066;2023-04-06T00:19:07;97744.00;;;0.14;62.91
46768;BME280;69007;48.978;18.066;2023-04-06T00:21:33;97728.97;;;0.13;64.29
46768;BME280;69007;48.978;18.066;2023-04-06T00:23:58;97713.44;;;-0.05;63.59
46768;BME280;69007;48.978;18.066;2023-04-06T00:26:23;97718.19;;;0.00;63.88
46768;BME280;69007;48.978;18.066;2023-04-06T00:28:49;97714.06;;;-0.03;63.70
46768;BME280;69007;48.978;18.066;2023-04-06T00:31:17;97730.16;;;0.04;63.50
46768;BME280;69007;48.978;18.066;2023-04-06T00:33:42;97714.53;;;0.08;63.59
46768;BME280;69007;48.978;18.066;2023-04-06T00:36:08;97721.72;;;0.07;64.47
46768;BME280;69007;48.978;18.066;2023-04-06T00:38:33;97716.16;;;0.02;63.99
46768;BME280;69007;48.978;18.066;2023-04-06T00:40:58;97716.34;;;0.01;64.51
46768;BME280;69007;48.978;18.066;2023-04-06T00:43:24;97700.00;;;-0.11;64.61
46768;BME280;69007;48.978;18.066;2023-04-06T00:45:49;97714.06;;;-0.03;64.39
46768;BME280;69007;48.978;18.066;2023-04-06T00:48:16;97709.66;;;-0.10;64.61
46768;BME280;69007;48.978;18.066;2023-04-06T00:50:42;97714.88;;;-0.02;65.61
46768;BME280;69007;48.978;18.066;2023-04-06T00:53:07;97722.03;;;-0.09;66.04
46768;BME280;69007;48.978;18.066;2023-04-06T00:55:32;97706.13;;;-0.17;66.14
46768;BME280;69007;48.978;18.066;2023-04-06T00:57:58;97711.47;;;-0.17;66.33
46768;BME280;69007;48.978;18.066;2023-04-06T01:00:25;97721.31;;;-0.25;66.56
46768;BME280;69007;48.978;18.066;2023-04-06T01:02:50;97716.16;;;-0.26;66.64
46768;BME280;69007;48.978;18.066;2023-04-06T01:05:16;97705.50;;;-0.20;66.58
46768;BME280;69007;48.978;18.066;2023-04-06T01:07:41;97719.69;;;-0.19;66.72
46768;BME280;69007;48.978;18.066;2023-04-06T01:10:07;97722.13;;;-0.24;67.01
46768;BME280;69007;48.978;18.066;2023-04-06T01:12:32;97713.28;;;-0.25;66.69
46768;BME280;69007;48.978;18.066;2023-04-06T01:14:59;97716.59;;;-0.23;67.58
46768;BME280;69007;48.978;18.066;2023-04-06T01:17:25;97706.09;;;-0.24;65.99
46768;BME280;69007;48.978;18.066;2023-04-06T01:19:50;97706.28;;;-0.26;66.16
46768;BME280;69007;48.978;18.066;2023-04-06T01:22:18;97702.75;;;-0.33;67.86
46768;BME280;69007;48.978;18.066;2023-04-06T01:24:44;97702.28;;;-0.37;67.20
46768;BME280;69007;48.978;18.066;2023-04-06T01:27:10;97706.47;;;-0.27;67.90
46768;BME280;69007;48.978;18.066;2023-04-06T01:29:36;97701.47;;;-0.37;67.97
46768;BME280;69007;48.978;18.066;2023-04-06T01:32:01;97712.22;;;-0.30;66.76
46768;BME280;69007;48.978;18.066;2023-04-06T01:34:27;97724.38;;;-0.28;67.39
46768;BME280;69007;48.978;18.066;2023-04-06T01:36:52;97698.41;;;-0.34;68.18
46768;BME280;69007;48.978;18.066;2023-04-06T01:39:18;97717.38;;;-0.29;67.48
46768;BME280;69007;48.978;18.066;2023-04-06T01:41:44;97721.69;;;-0.28;66.91
46768;BME280;69007;48.978;18.066;2023-04-06T01:44:12;97689.09;;;-0.38;66.91
46768;BME280;69007;48.978;18.066;2023-04-06T01:46:37;97685.41;;;-0.37;67.30
46768;BME280;69007;48.978;18.066;2023-04-06T01:49:02;97694.13;;;-0.28;66.75
46768;BME280;69007;48.978;18.066;2023-04-06T01:51:28;97725.63;;;-0.24;67.08
46768;BME280;69007;48.978;18.066;2023-04-06T01:53:53;97703.41;;;-0.24;67.51
46768;BME280;69007;48.978;18.066;2023-04-06T01:56:19;97701.31;;;-0.29;67.18
46768;BME280;69007;48.978;18.066;2023-04-06T01:58:45;97689.38;;;-0.33;66.67
46768;BME280;69007;48.978;18.066;2023-04-06T02:01:10;97691.00;;;-0.32;67.37
46768;BME280;69007;48.978;18.066;2023-04-06T02:03:35;97704.84;;;-0.22;66.89
46768;BME280;69007;48.978;18.066;2023-04-06T02:06:01;97684.66;;;-0.31;67.69
46768;BME280;69007;48.978;18.066;2023-04-06T02:08:26;97699.91;;;-0.25;67.23
46768;BME280;69007;48.978;18.066;2023-04-06T02:10:51;97701.31;;;-0.29;67.92
46768;BME280;69007;48.978;18.066;2023-04-06T02:13:17;97705.00;;;-0.30;67.78
46768;BME280;69007;48.978;18.066;2023-04-06T02:15:42;97693.69;;;-0.32;68.03
46768;BME280;69007;48.978;18.066;2023-04-06T02:18:08;97713.28;;;-0.25;67.57
46768;BME280;69007;48.978;18.066;2023-04-06T02:20:34;97691.00;;;-0.32;67.97
46768;BME280;69007;48.978;18.066;2023-04-06T02:22:59;97707.69;;;-0.30;68.81
46768;BME280;69007;48.978;18.066;2023-04-06T02:25:25;97711.00;;;-0.28;68.55
46768;BME280;69007;48.978;18.066;2023-04-06T02:27:51;97683.75;;;-0.38;68.69
46768;BME280;69007;48.978;18.066;2023-04-06T02:30:16;97680.06;;;-0.37;67.99
46768;BME280;69007;48.978;18.066;2023-04-06T02:32:42;97685.81;;;-0.40;68.38
46768;BME280;69007;48.978;18.066;2023-04-06T02:35:07;97701.69;;;-0.32;69.44
46768;BME280;69007;48.978;18.066;2023-04-06T02:37:33;97689.09;;;-0.38;69.11
46768;BME280;69007;48.978;18.066;2023-04-06T02:39:58;97696.72;;;-0.35;69.09
46768;BME280;69007;48.978;18.066;2023-04-06T02:42:24;97704.13;;;-0.37;69.44
46768;BME280;69007;48.978;18.066;2023-04-06T02:44:49;97702.88;;;-0.41;69.52
46768;BME280;69007;48.978;18.066;2023-04-06T02:47:14;97678.69;;;-0.54;70.04
46768;BME280;69007;48.978;18.066;2023-04-06T02:49:40;97701.97;;;-0.48;69.96
46768;BME280;69007;48.978;18.066;2023-04-06T02:52:06;97696.81;;;-0.50;71.21
46768;BME280;69007;48.978;18.066;2023-04-06T02:54:31;97696.63;;;-0.48;70.48
46768;BME280;69007;48.978;18.066;2023-04-06T02:56:56;97698.50;;;-0.49;70.34
46768;BME280;69007;48.978;18.066;2023-04-06T02:59:22;97682.84;;;-0.52;70.28
46768;BME280;69007;48.978;18.066;2023-04-06T03:01:47;97695.69;;;-0.41;69.57
46768;BME280;69007;48.978;18.066;2023-04-06T03:04:13;97697.72;;;-0.43;70.29
46768;BME280;69007;48.978;18.066;2023-04-06T03:06:38;97666.16;;;-0.54;70.77
46768;BME280;69007;48.978;18.066;2023-04-06T03:09:03;97687.84;;;-0.42;70.48
46768;BME280;69007;48.978;18.066;2023-04-06T03:11:29;97667.84;;;-0.46;69.31
46768;BME280;69007;48.978;18.066;2023-04-06T03:13:54;97682.88;;;-0.45;70.62
46768;BME280;69007;48.978;18.066;2023-04-06T03:16:20;97678.78;;;-0.48;72.18
46768;BME280;69007;48.978;18.066;2023-04-06T03:18:45;97679.59;;;-0.47;70.62
46768;BME280;69007;48.978;18.066;2023-04-06T03:21:12;97690.53;;;-0.42;70.21
46768;BME280;69007;48.978;18.066;2023-04-06T03:23:37;97677.16;;;-0.42;70.17
46768;BME280;69007;48.978;18.066;2023-04-06T03:26:03;97675.94;;;-0.40;70.13
46768;BME280;69007;48.978;18.066;2023-04-06T03:28:29;97692.00;;;-0.40;70.96
46768;BME280;69007;48.978;18.066;2023-04-06T03:30:54;97680.44;;;-0.40;70.50
46768;BME280;69007;48.978;18.066;2023-04-06T03:33:20;97675.28;;;-0.42;71.14
46768;BME280;69007;48.978;18.066;2023-04-06T03:35:45;97658.16;;;-0.54;70.85
46768;BME280;69007;48.978;18.066;2023-04-06T03:38:11;97673.47;;;-0.41;70.80
46768;BME280;69007;48.978;18.066;2023-04-06T03:40:36;97656.72;;;-0.50;71.47
46768;BME280;69007;48.978;18.066;2023-04-06T03:43:01;97653.56;;;-0.60;71.60
46768;BME280;69007;48.978;18.066;2023-04-06T03:45:27;97648.91;;;-0.51;70.58
46768;BME280;69007;48.978;18.066;2023-04-06T03:47:52;97650.13;;;-0.54;71.03
46768;BME280;69007;48.978;18.066;2023-04-06T03:50:17;97672.38;;;-0.47;71.83
46768;BME280;69007;48.978;18.066;2023-04-06T03:52:43;97657.75;;;-0.51;71.36
46768;BME280;69007;48.978;18.066;2023-04-06T03:55:08;97677.16;;;-0.42;71.99
46768;BME280;69007;48.978;18.066;2023-04-06T03:57:34;97667.41;;;-0.50;71.59
46768;BME280;69007;48.978;18.066;2023-04-06T03:59:59;97677.50;;;-0.52;71.87
46768;BME280;69007;48.978;18.066;2023-04-06T04:02:25;97672.38;;;-0.47;72.17
46768;BME280;69007;48.978;18.066;2023-04-06T04:04:50;97682.25;;;-0.47;71.80
46768;BME280;69007;48.978;18.066;2023-04-06T04:07:16;97685.31;;;-0.50;72.10
46768;BME280;69007;48.978;18.066;2023-04-06T04:09:41;97675.63;;;-0.51;72.78
46768;BME280;69007;48.978;18.066;2023-04-06T04:12:06;97690.91;;;-0.45;72.53
46768;BME280;69007;48.978;18.066;2023-04-06T04:14:32;97695.88;;;-0.42;71.83
46768;BME280;69007;48.978;18.066;2023-04-06T04:16:57;97654.78;;;-0.63;73.40
46768;BME280;69007;48.978;18.066;2023-04-06T04:19:22;97683.69;;;-0.45;73.91
46768;BME280;69007;48.978;18.066;2023-04-06T04:21:48;97693.81;;;-0.40;73.01
46768;BME280;69007;48.978;18.066;2023-04-06T04:24:13;97689.31;;;-0.40;73.00
46768;BME280;69007;48.978;18.066;2023-04-06T04:26:39;97667.22;;;-0.48;73.00
46768;BME280;69007;48.978;18.066;2023-04-06T04:29:05;97690.38;;;-0.34;72.36
46768;BME280;69007;48.978;18.066;2023-04-06T04:31:31;97692.31;;;-0.21;71.67
46768;BME280;69007;48.978;18.066;2023-04-06T04:33:57;97695.66;;;-0.12;72.21
46768;BME280;69007;48.978;18.066;2023-04-06T04:36:23;97692.22;;;-0.06;71.99
46768;BME280;69007;48.978;18.066;2023-04-06T04:38:51;97694.16;;;0.07;70.95
46768;BME280;69007;48.978;18.066;2023-04-06T04:41:16;97697.66;;;0.07;71.81
46768;BME280;69007;48.978;18.066;2023-04-06T04:43:42;97694.81;;;0.15;71.43
46768;BME280;69007;48.978;18.066;2023-04-06T04:46:07;97699.41;;;0.22;71.98
46768;BME280;69007;48.978;18.066;2023-04-06T04:48:32;97672.28;;;0.31;70.20
46768;BME280;69007;48.978;18.066;2023-04-06T04:50:58;97678.69;;;0.44;70.64
46768;BME280;69007;48.978;18.066;2023-04-06T04:53:23;97675.66;;;0.53;70.25
46768;BME280;69007;48.978;18.066;2023-04-06T04:55:48;97691.38;;;0.77;70.34
46768;BME280;69007;48.978;18.066;2023-04-06T04:58:14;97677.22;;;0.96;69.18
46768;BME280;69007;48.978;18.066;2023-04-06T05:00:42;97687.19;;;1.56;66.54
46768;BME280;69007;48.978;18.066;2023-04-06T05:03:08;97675.00;;;1.60;66.11
46768;BME280;69007;48.978;18.066;2023-04-06T05:05:34;97697.91;;;1.82;65.56
46768;BME280;69007;48.978;18.066;2023-04-06T05:07:59;97694.41;;;1.82;65.47
46768;BME280;69007;48.978;18.066;2023-04-06T05:10:25;97690.84;;;2.15;64.92
46768;BME280;69007;48.978;18.066;2023-04-06T05:12:50;97689.53;;;2.37;63.43
46768;BME280;69007;48.978;18.066;2023-04-06T05:15:16;97683.19;;;3.16;61.21
46768;BME280;69007;48.978;18.066;2023-04-06T05:17:41;97671.97;;;3.76;58.41
46768;BME280;69007;48.978;18.066;2023-04-06T05:20:07;97688.91;;;3.83;58.39
46768;BME280;69007;48.978;18.066;2023-04-06T05:22:32;97695.03;;;4.71;56.77
46768;BME280;69007;48.978;18.066;2023-04-06T05:24:58;97687.72;;;5.62;53.62
46768;BME280;69007;48.978;18.066;2023-04-06T05:27:23;97668.97;;;6.50;51.06
46768;BME280;69007;48.978;18.066;2023-04-06T05:29:50;97672.03;;;6.82;48.27
46768;BME280;69007;48.978;18.066;2023-04-06T05:32:16;97681.50;;;7.88;46.95
46768;BME280;69007;48.978;18.066;2023-04-06T05:34:41;97672.56;;;8.83;44.09
46768;BME280;69007;48.978;18.066;2023-04-06T05:37:07;97680.81;;;9.75;41.99
46768;BME280;69007;48.978;18.066;2023-04-06T05:39:32;97676.97;;;9.71;41.10
46768;BME280;69007;48.978;18.066;2023-04-06T05:41:57;97659.13;;;10.65;40.53
46768;BME280;69007;48.978;18.066;2023-04-06T05:44:23;97678.47;;;11.63;38.71
46768;BME280;69007;48.978;18.066;2023-04-06T05:46:48;97662.91;;;11.33;38.06
46768;BME280;69007;48.978;18.066;2023-04-06T05:49:13;97657.22;;;11.80;38.35
46768;BME280;69007;48.978;18.066;2023-04-06T05:51:40;97680.44;;;11.93;36.70
46768;BME280;69007;48.978;18.066;2023-04-06T05:54:05;97674.94;;;12.19;36.79
46768;BME280;69007;48.978;18.066;2023-04-06T05:56:31;97666.75;;;12.34;36.91
46768;BME280;69007;48.978;18.066;2023-04-06T05:58:57;97666.50;;;12.31;36.32
46768;BME280;69007;48.978;18.066;2023-04-06T06:01:22;97655.84;;;12.14;35.48
46768;BME280;69007;48.978;18.066;2023-04-06T06:03:47;97665.38;;;13.13;35.61
46768;BME280;69007;48.978;18.066;2023-04-06T06:06:13;97666.69;;;13.70;34.74
46768;BME280;69007;48.978;18.066;2023-04-06T06:08:38;97639.53;;;13.44;34.25
46768;BME280;69007;48.978;18.066;2023-04-06T06:11:03;97661.88;;;12.97;35.03
46768;BME280;69007;48.978;18.066;2023-04-06T06:13:29;97661.75;;;12.67;34.75
46768;BME280;69007;48.978;18.066;2023-04-06T06:15:54;97668.94;;;12.27;35.64
46768;BME280;69007;48.978;18.066;2023-04-06T06:18:20;97667.59;;;12.25;36.61
46768;BME280;69007;48.978;18.066;2023-04-06T06:20:45;97668.41;;;12.20;35.83
46768;BME280;69007;48.978;18.066;2023-04-06T06:23:10;97654.78;;;11.69;37.24
46768;BME280;69007;48.978;18.066;2023-04-06T06:25:36;97660.31;;;10.90;38.18
46768;BME280;69007;48.978;18.066;2023-04-06T06:28:01;97652.28;;;10.53;38.60
46768;BME280;69007;48.978;18.066;2023-04-06T06:30:27;97663.50;;;10.24;39.15
46768;BME280;69007;48.978;18.066;2023-04-06T06:32:52;97654.19;;;9.72;39.38
46768;BME280;69007;48.978;18.066;2023-04-06T06:35:17;97665.88;;;9.77;39.84
46768;BME280;69007;48.978;18.066;2023-04-06T06:37:43;97647.53;;;9.30;40.03
46768;BME280;69007;48.978;18.066;2023-04-06T06:40:09;97654.41;;;9.11;40.74
46768;BME280;69007;48.978;18.066;2023-04-06T06:42:35;97643.69;;;9.91;39.39
46768;BME280;69007;48.978;18.066;2023-04-06T06:45:00;97666.75;;;10.68;37.96
46768;BME280;69007;48.978;18.066;2023-04-06T06:47:26;97629.38;;;10.43;38.35
46768;BME280;69007;48.978;18.066;2023-04-06T06:49:51;97658.00;;;10.56;37.91
46768;BME280;69007;48.978;18.066;2023-04-06T06:52:17;97631.41;;;10.26;38.35
46768;BME280;69007;48.978;18.066;2023-04-06T06:54:42;97654.06;;;10.90;38.39
46768;BME280;69007;48.978;18.066;2023-04-06T06:57:08;97643.53;;;11.24;37.68
46768;BME280;69007;48.978;18.066;2023-04-06T06:59:34;97654.50;;;11.65;36.76
46768;BME280;69007;48.978;18.066;2023-04-06T07:01:59;97657.75;;;12.29;35.68
46768;BME280;69007;48.978;18.066;2023-04-06T07:04:25;97639.88;;;13.33;34.57
46768;BME280;69007;48.978;18.066;2023-04-06T07:06:50;97659.00;;;14.36;32.94
46768;BME280;69007;48.978;18.066;2023-04-06T07:09:16;97662.50;;;13.83;33.38
46768;BME280;69007;48.978;18.066;2023-04-06T07:11:41;97647.59;;;13.99;32.83
46768;BME280;69007;48.978;18.066;2023-04-06T07:14:07;97646.34;;;14.40;32.77
46768;BME280;69007;48.978;18.066;2023-04-06T07:16:32;97646.81;;;13.94;32.37
46768;BME280;69007;48.978;18.066;2023-04-06T07:18:58;97643.81;;;13.56;33.23
46768;BME280;69007;48.978;18.066;2023-04-06T07:21:23;97649.88;;;10.61;36.12
46768;BME280;69007;48.978;18.066;2023-04-06T07:23:48;97647.59;;;10.00;38.45
46768;BME280;69007;48.978;18.066;2023-04-06T07:26:15;97636.31;;;9.49;39.41
46768;BME280;69007;48.978;18.066;2023-04-06T07:28:41;97632.31;;;9.02;41.55
46768;BME280;69007;48.978;18.066;2023-04-06T07:31:06;97637.44;;;8.98;40.96
46768;BME280;69007;48.978;18.066;2023-04-06T07:33:32;97634.78;;;9.03;41.35
46768;BME280;69007;48.978;18.066;2023-04-06T07:35:57;97642.47;;;9.12;41.12
46768;BME280;69007;48.978;18.066;2023-04-06T07:38:24;97633.00;;;8.65;41.61
46768;BME280;69007;48.978;18.066;2023-04-06T07:40:49;97641.88;;;8.60;42.80
46768;BME280;69007;48.978;18.066;2023-04-06T07:43:15;97616.31;;;8.34;43.27
46768;BME280;69007;48.978;18.066;2023-04-06T07:45:41;97630.34;;;8.09;43.18
46768;BME280;69007;48.978;18.066;2023-04-06T07:48:06;97648.63;;;8.02;43.59
46768;BME280;69007;48.978;18.066;2023-04-06T07:50:32;97630.97;;;8.77;42.97
46768;BME280;69007;48.978;18.066;2023-04-06T07:52:57;97640.16;;;8.98;41.37
46768;BME280;69007;48.978;18.066;2023-04-06T07:55:23;97643.63;;;8.94;42.15
46768;BME280;69007;48.978;18.066;2023-04-06T07:57:48;97620.50;;;8.25;42.40
46768;BME280;69007;48.978;18.066;2023-04-06T08:00:14;97636.88;;;7.74;43.13
46768;BME280;69007;48.978;18.066;2023-04-06T08:02:39;97613.16;;;7.64;44.27
46768;BME280;69007;48.978;18.066;2023-04-06T08:05:05;97635.88;;;7.97;43.60
46768;BME280;69007;48.978;18.066;2023-04-06T08:07:31;97616.84;;;8.14;43.56
46768;BME280;69007;48.978;18.066;2023-04-06T08:09:56;97639.44;;;8.59;43.25
46768;BME280;69007;48.978;18.066;2023-04-06T08:12:21;97627.25;;;8.61;43.86
46768;BME280;69007;48.978;18.066;2023-04-06T08:14:47;97630.75;;;8.84;44.78
46768;BME280;69007;48.978;18.066;2023-04-06T08:17:13;97620.03;;;8.94;43.25
46768;BME280;69007;48.978;18.066;2023-04-06T08:19:38;97646.47;;;8.82;42.73
46768;BME280;69007;48.978;18.066;2023-04-06T08:22:04;97630.16;;;8.16;41.50
46768;BME280;69007;48.978;18.066;2023-04-06T08:24:29;97632.94;;;8.21;42.46
46768;BME280;69007;48.978;18.066;2023-04-06T08:26:55;97626.91;;;8.36;41.46
46768;BME280;69007;48.978;18.066;2023-04-06T08:29:21;97630.84;;;8.45;42.71
46768;BME280;69007;48.978;18.066;2023-04-06T08:31:46;97628.75;;;8.52;42.38
46768;BME280;69007;48.978;18.066;2023-04-06T08:34:12;97608.81;;;8.85;41.69
46768;BME280;69007;48.978;18.066;2023-04-06T08:36:37;97626.66;;;9.31;41.50
46768;BME280;69007;48.978;18.066;2023-04-06T08:39:02;97630.88;;;9.49;40.12
46768;BME280;69007;48.978;18.066;2023-04-06T08:41:28;97603.91;;;9.10;40.44
46768;BME280;69007;48.978;18.066;2023-04-06T08:43:58;97619.06;;;9.65;40.28
46768;BME280;69007;48.978;18.066;2023-04-06T08:46:24;97603.34;;;9.40;40.70
46768;BME280;69007;48.978;18.066;2023-04-06T08:49:02;97615.50;;;9.65;40.26
46768;BME280;69007;48.978;18.066;2023-04-06T08:51:29;97615.03;;;10.10;40.60
46768;BME280;69007;48.978;18.066;2023-04-06T08:53:57;97627.44;;;9.96;38.89
46768;BME280;69007;48.978;18.066;2023-04-06T08:56:24;97608.03;;;9.82;39.93
46768;BME280;69007;48.978;18.066;2023-04-06T08:58:50;97611.53;;;9.77;40.21
46768;BME280;69007;48.978;18.066;2023-04-06T09:01:20;97625.91;;;9.73;38.30
46768;BME280;69007;48.978;18.066;2023-04-06T09:03:46;97592.63;;;8.96;38.66
46768;BME280;69007;48.978;18.066;2023-04-06T09:06:13;97606.75;;;8.71;39.43
46768;BME280;69007;48.978;18.066;2023-04-06T09:08:40;97617.09;;;8.52;40.02
46768;BME280;69007;48.978;18.066;2023-04-06T09:11:06;97613.25;;;8.70;40.29
46768;BME280;69007;48.978;18.066;2023-04-06T09:13:44;97583.00;;;8.83;40.22
46768;BME280;69007;48.978;18.066;2023-04-06T09:16:10;97612.25;;;9.03;39.75
46768;BME280;69007;48.978;18.066;2023-04-06T09:18:36;97601.47;;;9.40;39.10
46768;BME280;69007;48.978;18.066;2023-04-06T09:21:03;97587.56;;;9.04;39.98
46768;BME280;69007;48.978;18.066;2023-04-06T09:23:29;97600.50;;;9.25;40.33
46768;BME280;69007;48.978;18.066;2023-04-06T09:26:12;97636.19;;;9.38;38.15
46768;BME280;69007;48.978;18.066;2023-04-06T09:28:54;97587.13;;;8.63;37.97
46768;BME280;69007;48.978;18.066;2023-04-06T09:31:28;97603.44;;;8.91;38.57
46768;BME280;69007;48.978;18.066;2023-04-06T09:33:56;97592.97;;;8.33;37.96
46768;BME280;69007;48.978;18.066;2023-04-06T09:36:35;97578.97;;;7.80;39.80
46768;BME280;69007;48.978;18.066;2023-04-06T09:39:04;97580.75;;;7.91;41.07
46768;BME280;69007;48.978;18.066;2023-04-06T09:41:34;97603.75;;;8.45;40.15
46768;BME280;69007;48.978;18.066;2023-04-06T09:44:15;97591.31;;;8.98;40.35
46768;BME280;69007;48.978;18.066;2023-04-06T09:46:42;97564.09;;;9.20;39.58
46768;BME280;69007;48.978;18.066;2023-04-06T09:49:10;97590.03;;;9.06;39.16
46768;BME280;69007;48.978;18.066;2023-04-06T09:51:38;97601.47;;;9.40;39.72
46768;BME280;69007;48.978;18.066;2023-04-06T09:54:05;97597.16;;;9.45;38.29
46768;BME280;69007;48.978;18.066;2023-04-06T09:56:39;97588.84;;;9.24;38.90
46768;BME280;69007;48.978;18.066;2023-04-06T09:59:13;97578.19;;;9.50;38.82
46768;BME280;69007;48.978;18.066;2023-04-06T10:01:39;97579.00;;;9.18;40.30
46768;BME280;69007;48.978;18.066;2023-04-06T10:06:43;97583.00;;;8.83;40.68
46768;BME280;69007;48.978;18.066;2023-04-06T10:09:10;97581.38;;;8.82;39.83
46768;BME280;69007;48.978;18.066;2023-04-06T10:11:36;97551.66;;;8.70;39.62
46768;BME280;69007;48.978;18.066;2023-04-06T10:14:02;97579.16;;;8.79;40.50
46768;BME280;69007;48.978;18.066;2023-04-06T10:16:27;97567.50;;;8.56;39.57
46768;BME280;69007;48.978;18.066;2023-04-06T10:19:00;97573.22;;;8.38;40.04
46768;BME280;69007;48.978;18.066;2023-04-06T10:21:28;97542.41;;;8.22;40.11
46768;BME280;69007;48.978;18.066;2023-04-06T10:23:59;97558.00;;;8.54;39.92
46768;BME280;69007;48.978;18.066;2023-04-06T10:26:25;97548.28;;;8.36;39.67
46768;BME280;69007;48.978;18.066;2023-04-06T10:28:51;97555.09;;;8.60;39.93
46768;BME280;69007;48.978;18.066;2023-04-06T10:31:25;97561.75;;;8.75;39.01
46768;BME280;69007;48.978;18.066;2023-04-06T10:33:56;97555.22;;;8.98;39.79
46768;BME280;69007;48.978;18.066;2023-04-06T10:36:24;97548.13;;;8.97;39.94
46768;BME280;69007;48.978;18.066;2023-04-06T10:38:56;97562.25;;;9.26;40.38
46768;BME280;69007;48.978;18.066;2023-04-06T10:41:22;97549.16;;;8.91;39.26
46768;BME280;69007;48.978;18.066;2023-04-06T10:43:55;97543.59;;;9.02;38.92
46768;BME280;69007;48.978;18.066;2023-04-06T10:46:25;97548.56;;;8.83;39.42
46768;BME280;69007;48.978;18.066;2023-04-06T10:48:51;97551.66;;;8.97;39.42
46768;BME280;69007;48.978;18.066;2023-04-06T10:51:17;97564.16;;;8.71;40.06
46768;BME280;69007;48.978;18.066;2023-04-06T10:53:45;97555.63;;;8.84;39.93
46768;BME280;69007;48.978;18.066;2023-04-06T10:56:13;97545.38;;;8.92;40.46
46768;BME280;69007;48.978;18.066;2023-04-06T10:58:47;97553.44;;;8.59;40.56
46768;BME280;69007;48.978;18.066;2023-04-06T11:01:17;97547.69;;;8.78;40.84
46768;BME280;69007;48.978;18.066;2023-04-06T11:03:51;97558.13;;;8.91;40.79
46768;BME280;69007;48.978;18.066;2023-04-06T11:06:21;97552.84;;;9.07;40.50
46768;BME280;69007;48.978;18.066;2023-04-06T11:08:47;97542.81;;;8.80;40.62
46768;BME280;69007;48.978;18.066;2023-04-06T11:11:14;97538.00;;;8.60;40.50
46768;BME280;69007;48.978;18.066;2023-04-06T11:13:51;97532.56;;;8.87;41.49
46768;BME280;69007;48.978;18.066;2023-04-06T11:19:03;97545.56;;;8.58;40.52
46768;BME280;69007;48.978;18.066;2023-04-06T11:21:37;97556.03;;;8.71;40.37
46768;BME280;69007;48.978;18.066;2023-04-06T11:26:57;97562.63;;;8.53;41.14
46768;BME280;69007;48.978;18.066;2023-04-06T11:29:26;97535.91;;;8.23;41.67
46768;BME280;69007;48.978;18.066;2023-04-06T11:32:02;97544.00;;;8.40;41.47
46768;BME280;69007;48.978;18.066;2023-04-06T11:34:29;97529.94;;;7.99;41.84
46768;BME280;69007;48.978;18.066;2023-04-06T11:36:57;97518.56;;;8.02;42.35
46768;BME280;69007;48.978;18.066;2023-04-06T11:39:24;97548.53;;;8.12;41.98
46768;BME280;69007;48.978;18.066;2023-04-06T11:41:51;97532.00;;;7.91;42.39
46768;BME280;69007;48.978;18.066;2023-04-06T11:44:32;97534.28;;;7.61;42.70
46768;BME280;69007;48.978;18.066;2023-04-06T11:46:59;97538.38;;;8.02;43.39
46768;BME280;69007;48.978;18.066;2023-04-06T11:49:31;97546.75;;;8.23;42.99
46768;BME280;69007;48.978;18.066;2023-04-06T11:51:58;97523.56;;;8.10;42.60
46768;BME280;69007;48.978;18.066;2023-04-06T11:54:34;97552.75;;;8.03;41.64
46768;BME280;69007;48.978;18.066;2023-04-06T11:57:01;97519.09;;;7.99;41.64
46768;BME280;69007;48.978;18.066;2023-04-06T11:59:27;97540.38;;;7.90;42.02
46768;BME280;69007;48.978;18.066;2023-04-06T12:01:53;97519.47;;;7.85;41.97
46768;BME280;69007;48.978;18.066;2023-04-06T12:04:19;97540.34;;;8.07;42.35
46768;BME280;69007;48.978;18.066;2023-04-06T12:06:45;97545.66;;;7.80;42.47
46768;BME280;69007;48.978;18.066;2023-04-06T12:09:11;97518.97;;;7.49;43.67
46768;BME280;69007;48.978;18.066;2023-04-06T12:11:36;97547.97;;;7.71;43.87
46768;BME280;69007;48.978;18.066;2023-04-06T12:14:01;97533.88;;;7.52;42.92
46768;BME280;69007;48.978;18.066;2023-04-06T12:16:30;97524.53;;;7.09;43.66
46768;BME280;69007;48.978;18.066;2023-04-06T12:18:56;97502.88;;;6.75;44.30
46768;BME280;69007;48.978;18.066;2023-04-06T12:21:21;97523.03;;;6.84;44.39
46768;BME280;69007;48.978;18.066;2023-04-06T12:23:47;97537.13;;;6.69;45.01
46768;BME280;69007;48.978;18.066;2023-04-06T12:26:12;97517.47;;;6.74;44.97
46768;BME280;69007;48.978;18.066;2023-04-06T12:28:38;97526.28;;;6.52;44.97
46768;BME280;69007;48.978;18.066;2023-04-06T12:31:03;97519.53;;;6.83;45.51
46768;BME280;69007;48.978;18.066;2023-04-06T12:33:29;97515.66;;;6.79;44.92
46768;BME280;69007;48.978;18.066;2023-04-06T12:35:54;97520.09;;;6.69;44.73
46768;BME280;69007;48.978;18.066;2023-04-06T12:38:19;97523.81;;;6.96;44.48
46768;BME280;69007;48.978;18.066;2023-04-06T12:40:46;97520.91;;;6.86;44.52
46768;BME280;69007;48.978;18.066;2023-04-06T12:43:11;97488.28;;;6.93;44.25
46768;BME280;69007;48.978;18.066;2023-04-06T12:45:39;97509.38;;;7.08;44.66
46768;BME280;69007;48.978;18.066;2023-04-06T12:48:05;97501.25;;;7.08;43.93
46768;BME280;69007;48.978;18.066;2023-04-06T12:50:31;97510.69;;;7.05;44.72
46768;BME280;69007;48.978;18.066;2023-04-06T12:52:56;97511.59;;;7.28;44.92
46768;BME280;69007;48.978;18.066;2023-04-06T12:55:21;97513.56;;;7.15;44.25
46768;BME280;69007;48.978;18.066;2023-04-06T12:57:47;97504.13;;;7.01;44.98
46768;BME280;69007;48.978;18.066;2023-04-06T13:00:13;97508.47;;;7.02;45.34